Gostivar, Macedonia
Current Conditions -  °F | °C
As of 1:30 PM on Wednesday 26 Nov 2014 (Local Time) from LWSK Reporting Station
Broken Clouds Broken Clouds  
Wind Chill: 46°   Ceiling: 4300
Heat Index: 46°   Visibility: 6mi
Dew Point: 32°   Wind: 1mph
Humidity: 57%   Direction: NA
Pressure: 30.18"   Gusts: NA
Location:  41.8°N, 20.92°E
Report Text: LWSK 261130Z VRB01KT 9999 FEW030 BKN043 08/00 Q1022 NOSIG
Loading
Personal Weather Stations






























Interactive Weather Map New forecast layout! Learn more

10-Day Weather Forecast

Advertisements
Track Severe Weather on mobile